sensor_id;sensor_type;location;lat;lon;timestamp;pressure;altitude;pressure_sealevel;temperature;humidity
35045;BME280;21231;48.394;34.964;2022-07-29T08:03:19;100350.94;;;31.71;52.66
35045;BME280;21231;48.394;34.964;2022-07-29T08:06:20;100352.66;;;31.73;53.38
35045;BME280;21231;48.394;34.964;2022-07-29T08:09:07;100356.75;;;31.53;53.83
35045;BME280;21231;48.394;34.964;2022-07-29T08:12:16;100360.63;;;31.41;53.93
35045;BME280;21231;48.394;34.964;2022-07-29T08:15:03;100349.09;;;32.33;53.33
35045;BME280;21231;48.394;34.964;2022-07-29T08:17:52;100344.63;;;32.33;51.89
35045;BME280;21231;48.394;34.964;2022-07-29T08:20:39;100352.66;;;32.88;51.64
35045;BME280;21231;48.394;34.964;2022-07-29T08:30:27;100365.56;;;32.46;50.70
35045;BME280;21231;48.394;34.964;2022-07-29T08:33:42;100349.50;;;32.19;50.17
35045;BME280;21231;48.394;34.964;2022-07-29T08:36:30;100353.56;;;32.32;50.99
35045;BME280;21231;48.394;34.964;2022-07-29T08:39:18;100358.41;;;33.02;50.34
35045;BME280;21231;48.394;34.964;2022-07-29T08:42:08;100353.75;;;32.82;50.19
35045;BME280;21231;48.394;34.964;2022-07-29T08:44:56;100358.81;;;32.05;51.14
35045;BME280;21231;48.394;34.964;2022-07-29T08:48:05;100355.75;;;31.58;51.48
35045;BME280;21231;48.394;34.964;2022-07-29T08:50:56;100356.56;;;31.91;50.61
35045;BME280;21231;48.394;34.964;2022-07-29T08:53:45;100359.69;;;32.06;52.06
35045;BME280;21231;48.394;34.964;2022-07-29T08:56:50;100356.66;;;32.47;48.39
35045;BME280;21231;48.394;34.964;2022-07-29T08:59:46;100353.22;;;32.15;49.59
35045;BME280;21231;48.394;34.964;2022-07-29T09:02:40;100347.91;;;32.15;50.53
35045;BME280;21231;48.394;34.964;2022-07-29T09:08:44;100354.94;;;31.86;50.79
35045;BME280;21231;48.394;34.964;2022-07-29T09:12:04;100350.16;;;31.67;51.40
35045;BME280;21231;48.394;34.964;2022-07-29T09:14:58;100352.63;;;31.08;51.80
35045;BME280;21231;48.394;34.964;2022-07-29T09:17:59;100343.03;;;30.66;52.90
35045;BME280;21231;48.394;34.964;2022-07-29T09:20:52;100350.66;;;31.15;53.47
35045;BME280;21231;48.394;34.964;2022-07-29T09:24:09;100356.78;;;32.14;50.41
35045;BME280;21231;48.394;34.964;2022-07-29T09:26:57;100346.66;;;31.65;50.36
35045;BME280;21231;48.394;34.964;2022-07-29T09:29:43;100351.72;;;31.42;51.04
35045;BME280;21231;48.394;34.964;2022-07-29T09:32:53;100347.25;;;31.76;49.88
35045;BME280;21231;48.394;34.964;2022-07-29T09:35:43;100345.66;;;31.37;51.12
35045;BME280;21231;48.394;34.964;2022-07-29T09:39:04;100343.47;;;30.85;52.80
35045;BME280;21231;48.394;34.964;2022-07-29T09:42:29;100344.69;;;30.34;51.31
35045;BME280;21231;48.394;34.964;2022-07-29T09:45:33;100347.88;;;30.10;56.26
35045;BME280;21231;48.394;34.964;2022-07-29T09:48:30;100342.66;;;30.06;53.86
35045;BME280;21231;48.394;34.964;2022-07-29T09:51:19;100337.91;;;29.79;53.02
35045;BME280;21231;48.394;34.964;2022-07-29T09:54:30;100338.03;;;29.71;53.92
35045;BME280;21231;48.394;34.964;2022-07-29T09:57:33;100332.75;;;29.70;51.63
35045;BME280;21231;48.394;34.964;2022-07-29T10:00:59;100335.81;;;29.50;52.31
35045;BME280;21231;48.394;34.964;2022-07-29T10:07:16;100326.25;;;29.42;54.87
35045;BME280;21231;48.394;34.964;2022-07-29T10:10:39;100334.03;;;29.52;54.35
35045;BME280;21231;48.394;34.964;2022-07-29T10:13:30;100335.75;;;29.54;54.17
35045;BME280;21231;48.394;34.964;2022-07-29T10:16:21;100338.91;;;29.26;54.48
35045;BME280;21231;48.394;34.964;2022-07-29T10:19:28;100337.50;;;29.06;58.07
35045;BME280;21231;48.394;34.964;2022-07-29T10:22:19;100337.22;;;29.22;58.13
35045;BME280;21231;48.394;34.964;2022-07-29T10:25:31;100333.59;;;29.26;56.65
35045;BME280;21231;48.394;34.964;2022-07-29T10:28:19;100332.53;;;29.37;57.93
35045;BME280;21231;48.394;34.964;2022-07-29T10:31:18;100332.97;;;29.13;56.59
35045;BME280;21231;48.394;34.964;2022-07-29T10:34:25;100332.09;;;29.11;58.50
35045;BME280;21231;48.394;34.964;2022-07-29T10:44:28;100331.63;;;29.36;63.74
35045;BME280;21231;48.394;34.964;2022-07-29T10:47:27;100343.41;;;29.22;58.66
35045;BME280;21231;48.394;34.964;2022-07-29T10:50:16;100323.31;;;29.09;57.21
35045;BME280;21231;48.394;34.964;2022-07-29T10:53:09;100325.28;;;28.96;55.78
35045;BME280;21231;48.394;34.964;2022-07-29T10:56:00;100313.84;;;28.95;62.34
35045;BME280;21231;48.394;34.964;2022-07-29T11:05:27;100338.47;;;29.02;60.25
35045;BME280;21231;48.394;34.964;2022-07-29T11:11:47;100320.72;;;29.04;62.69
35045;BME280;21231;48.394;34.964;2022-07-29T11:14:59;100323.72;;;28.86;59.41
35045;BME280;21231;48.394;34.964;2022-07-29T11:20:48;100313.06;;;28.90;60.36
35045;BME280;21231;48.394;34.964;2022-07-29T11:23:41;100322.69;;;28.94;59.46
35045;BME280;21231;48.394;34.964;2022-07-29T11:26:30;100322.03;;;28.81;59.27
35045;BME280;21231;48.394;34.964;2022-07-29T11:29:20;100325.47;;;28.87;64.39
35045;BME280;21231;48.394;34.964;2022-07-29T11:32:11;100312.00;;;28.97;61.39
35045;BME280;21231;48.394;34.964;2022-07-29T11:35:19;100310.22;;;29.00;61.75
35045;BME280;21231;48.394;34.964;2022-07-29T11:38:28;100317.41;;;28.93;58.46
35045;BME280;21231;48.394;34.964;2022-07-29T11:41:27;100313.94;;;28.89;61.29
35045;BME280;21231;48.394;34.964;2022-07-29T11:44:18;100326.34;;;28.89;60.67
35045;BME280;21231;48.394;34.964;2022-07-29T11:47:46;100318.41;;;28.86;64.23
35045;BME280;21231;48.394;34.964;2022-07-29T11:50:41;100320.34;;;28.77;61.76
35045;BME280;21231;48.394;34.964;2022-07-29T11:53:30;100331.84;;;28.76;58.28
35045;BME280;21231;48.394;34.964;2022-07-29T11:56:36;100315.81;;;28.82;60.21
35045;BME280;21231;48.394;34.964;2022-07-29T11:59:25;100313.16;;;28.82;60.71
35045;BME280;21231;48.394;34.964;2022-07-29T12:02:21;100317.47;;;28.90;62.78
35045;BME280;21231;48.394;34.964;2022-07-29T12:05:48;100310.41;;;28.90;61.93
35045;BME280;21231;48.394;34.964;2022-07-29T12:08:57;100304.22;;;28.88;60.76
35045;BME280;21231;48.394;34.964;2022-07-29T12:18:23;100308.88;;;28.74;60.89
35045;BME280;21231;48.394;34.964;2022-07-29T12:21:20;100307.06;;;28.77;59.74
35045;BME280;21231;48.394;34.964;2022-07-29T12:27:30;100297.50;;;28.68;60.86
35045;BME280;21231;48.394;34.964;2022-07-29T12:30:38;100289.41;;;28.76;60.82
35045;BME280;21231;48.394;34.964;2022-07-29T12:33:52;100294.72;;;28.76;62.29
35045;BME280;21231;48.394;34.964;2022-07-29T12:36:45;100303.56;;;28.74;64.67
35045;BME280;21231;48.394;34.964;2022-07-29T12:39:32;100308.19;;;28.62;64.18
35045;BME280;21231;48.394;34.964;2022-07-29T12:42:20;100305.72;;;28.50;59.26
35045;BME280;21231;48.394;34.964;2022-07-29T12:45:09;100300.25;;;28.59;60.94
35045;BME280;21231;48.394;34.964;2022-07-29T12:48:00;100300.34;;;28.56;60.26
35045;BME280;21231;48.394;34.964;2022-07-29T12:54:07;100299.50;;;28.52;71.08
35045;BME280;21231;48.394;34.964;2022-07-29T12:57:11;100299.69;;;28.40;66.24
35045;BME280;21231;48.394;34.964;2022-07-29T13:00:16;100304.97;;;28.41;66.96
35045;BME280;21231;48.394;34.964;2022-07-29T13:03:25;100297.88;;;28.45;69.74
35045;BME280;21231;48.394;34.964;2022-07-29T13:09:21;100303.09;;;28.48;68.25
35045;BME280;21231;48.394;34.964;2022-07-29T13:12:12;100303.28;;;28.37;68.05
35045;BME280;21231;48.394;34.964;2022-07-29T13:15:22;100293.75;;;28.24;68.96
35045;BME280;21231;48.394;34.964;2022-07-29T13:18:30;100302.59;;;28.26;69.74
35045;BME280;21231;48.394;34.964;2022-07-29T13:21:17;100299.94;;;28.24;65.79
35045;BME280;21231;48.394;34.964;2022-07-29T13:24:08;100304.19;;;28.36;70.23
35045;BME280;21231;48.394;34.964;2022-07-29T13:26:56;100301.75;;;28.21;66.40
35045;BME280;21231;48.394;34.964;2022-07-29T13:29:44;100307.00;;;28.25;64.52
35045;BME280;21231;48.394;34.964;2022-07-29T13:32:32;100307.03;;;28.22;66.05
35045;BME280;21231;48.394;34.964;2022-07-29T13:35:28;100310.56;;;28.23;65.57
35045;BME280;21231;48.394;34.964;2022-07-29T13:41:41;100299.00;;;28.30;66.13
35045;BME280;21231;48.394;34.964;2022-07-29T13:44:42;100297.50;;;28.10;66.71
35045;BME280;21231;48.394;34.964;2022-07-29T13:47:29;100291.28;;;28.13;70.01
35045;BME280;21231;48.394;34.964;2022-07-29T13:50:21;100293.16;;;28.03;69.28
35045;BME280;21231;48.394;34.964;2022-07-29T13:53:35;100299.34;;;28.02;69.08
35045;BME280;21231;48.394;34.964;2022-07-29T13:56:56;100295.75;;;28.09;66.33
35045;BME280;21231;48.394;34.964;2022-07-29T13:59:48;100293.28;;;27.93;65.00
35045;BME280;21231;48.394;34.964;2022-07-29T14:02:39;100291.44;;;28.00;69.08
35045;BME280;21231;48.394;34.964;2022-07-29T14:05:26;100288.06;;;27.89;63.38
35045;BME280;21231;48.394;34.964;2022-07-29T14:08:16;100290.72;;;27.89;67.29
35045;BME280;21231;48.394;34.964;2022-07-29T14:11:08;100284.38;;;27.99;68.76
35045;BME280;21231;48.394;34.964;2022-07-29T14:13:56;100287.13;;;27.93;63.57
35045;BME280;21231;48.394;34.964;2022-07-29T14:16:45;100284.53;;;27.88;66.97
35045;BME280;21231;48.394;34.964;2022-07-29T14:19:37;100273.16;;;27.83;71.71
35045;BME280;21231;48.394;34.964;2022-07-29T14:22:40;100278.50;;;27.77;71.18
35045;BME280;21231;48.394;34.964;2022-07-29T14:25:51;100287.38;;;27.73;73.24
35045;BME280;21231;48.394;34.964;2022-07-29T14:28:41;100277.78;;;27.65;70.77
35045;BME280;21231;48.394;34.964;2022-07-29T14:34:29;100282.19;;;27.66;71.43
35045;BME280;21231;48.394;34.964;2022-07-29T14:37:43;100286.66;;;27.61;70.01
35045;BME280;21231;48.394;34.964;2022-07-29T14:40:46;100273.31;;;27.69;74.36
35045;BME280;21231;48.394;34.964;2022-07-29T14:43:54;100283.00;;;27.70;69.69
35045;BME280;21231;48.394;34.964;2022-07-29T14:46:46;100287.38;;;27.73;77.25
35045;BME280;21231;48.394;34.964;2022-07-29T14:49:43;100281.44;;;27.55;69.67
35045;BME280;21231;48.394;34.964;2022-07-29T14:52:38;100278.88;;;27.49;68.12
35045;BME280;21231;48.394;34.964;2022-07-29T14:55:25;100279.69;;;27.56;69.31
35045;BME280;21231;48.394;34.964;2022-07-29T14:58:16;100276.22;;;27.50;67.54
35045;BME280;21231;48.394;34.964;2022-07-29T15:01:04;100276.28;;;27.43;66.96
35045;BME280;21231;48.394;34.964;2022-07-29T15:03:57;100271.16;;;27.30;65.55
35045;BME280;21231;48.394;34.964;2022-07-29T15:06:45;100272.09;;;27.24;66.40
35045;BME280;21231;48.394;34.964;2022-07-29T15:09:48;100266.91;;;27.13;69.30
35045;BME280;21231;48.394;34.964;2022-07-29T15:12:38;100275.84;;;27.01;69.57
35045;BME280;21231;48.394;34.964;2022-07-29T15:15:41;100272.25;;;27.07;70.57
35045;BME280;21231;48.394;34.964;2022-07-29T15:18:42;100272.16;;;27.17;71.91
35045;BME280;21231;48.394;34.964;2022-07-29T15:21:36;100272.16;;;27.17;75.43
35045;BME280;21231;48.394;34.964;2022-07-29T15:25:04;100275.81;;;27.05;75.79
35045;BME280;21231;48.394;34.964;2022-07-29T15:28:13;100286.59;;;26.83;76.76
35045;BME280;21231;48.394;34.964;2022-07-29T15:31:08;100284.03;;;26.78;79.25
35045;BME280;21231;48.394;34.964;2022-07-29T15:37:25;100289.47;;;26.55;84.34
35045;BME280;21231;48.394;34.964;2022-07-29T15:40:57;100286.84;;;26.53;83.26
35045;BME280;21231;48.394;34.964;2022-07-29T15:43:53;100293.94;;;26.48;82.22
35045;BME280;21231;48.394;34.964;2022-07-29T15:46:48;100293.94;;;26.46;82.44
35045;BME280;21231;48.394;34.964;2022-07-29T15:49:51;100293.94;;;26.48;80.19
35045;BME280;21231;48.394;34.964;2022-07-29T15:52:49;100299.25;;;26.45;84.31
35045;BME280;21231;48.394;34.964;2022-07-29T15:55:44;100292.25;;;26.37;80.31
35045;BME280;21231;48.394;34.964;2022-07-29T15:58:37;100299.25;;;26.42;83.71
35045;BME280;21231;48.394;34.964;2022-07-29T16:01:45;100295.88;;;26.22;80.21
35045;BME280;21231;48.394;34.964;2022-07-29T16:04:42;100288.00;;;26.11;83.82
35045;BME280;21231;48.394;34.964;2022-07-29T16:07:45;100296.00;;;25.99;84.96
35045;BME280;21231;48.394;34.964;2022-07-29T16:10:45;100303.09;;;25.92;86.57
35045;BME280;21231;48.394;34.964;2022-07-29T16:13:46;100296.94;;;25.82;84.74
35045;BME280;21231;48.394;34.964;2022-07-29T16:16:33;100309.28;;;25.85;80.96
35045;BME280;21231;48.394;34.964;2022-07-29T16:19:21;100306.66;;;25.76;83.08
35045;BME280;21231;48.394;34.964;2022-07-29T16:22:11;100307.59;;;25.70;82.77
35045;BME280;21231;48.394;34.964;2022-07-29T16:25:02;100309.34;;;25.65;84.75
35045;BME280;21231;48.394;34.964;2022-07-29T16:27:52;100312.91;;;25.59;88.95
35045;BME280;21231;48.394;34.964;2022-07-29T16:30:51;100306.78;;;25.49;100.00
35045;BME280;21231;48.394;34.964;2022-07-29T16:33:42;100312.06;;;25.41;97.55
35045;BME280;21231;48.394;34.964;2022-07-29T16:36:47;100312.09;;;25.30;100.00
35045;BME280;21231;48.394;34.964;2022-07-29T16:39:33;100311.25;;;25.22;100.00
35045;BME280;21231;48.394;34.964;2022-07-29T16:42:30;100313.84;;;25.13;100.00
35045;BME280;21231;48.394;34.964;2022-07-29T16:45:37;100315.66;;;25.01;100.00
35045;BME280;21231;48.394;34.964;2022-07-29T16:48:31;100313.03;;;24.90;100.00
35045;BME280;21231;48.394;34.964;2022-07-29T16:51:22;100320.06;;;24.79;100.00
35045;BME280;21231;48.394;34.964;2022-07-29T16:54:09;100320.94;;;24.64;100.00
35045;BME280;21231;48.394;34.964;2022-07-29T16:56:58;100315.66;;;24.51;100.00
35045;BME280;21231;48.394;34.964;2022-07-29T16:59:47;100319.16;;;24.39;100.00
35045;BME280;21231;48.394;34.964;2022-07-29T17:02:37;100318.25;;;24.25;100.00
35045;BME280;21231;48.394;34.964;2022-07-29T17:05:28;100319.06;;;24.07;100.00
35045;BME280;21231;48.394;34.964;2022-07-29T17:08:35;100317.25;;;23.96;100.00
35045;BME280;21231;48.394;34.964;2022-07-29T17:11:33;100327.78;;;23.90;100.00
35045;BME280;21231;48.394;34.964;2022-07-29T17:14:42;100333.88;;;23.75;100.00
35045;BME280;21231;48.394;34.964;2022-07-29T17:17:49;100333.78;;;23.56;100.00
35045;BME280;21231;48.394;34.964;2022-07-29T17:20:41;100334.56;;;23.41;100.00
35045;BME280;21231;48.394;34.964;2022-07-29T17:23:28;100336.28;;;23.34;100.00
35045;BME280;21231;48.394;34.964;2022-07-29T17:26:19;100338.84;;;23.28;100.00
35045;BME280;21231;48.394;34.964;2022-07-29T17:29:30;100343.16;;;23.18;100.00
35045;BME280;21231;48.394;34.964;2022-07-29T17:32:20;100341.38;;;23.11;100.00
35045;BME280;21231;48.394;34.964;2022-07-29T17:35:10;100341.31;;;23.03;100.00
35045;BME280;21231;48.394;34.964;2022-07-29T17:38:17;100355.22;;;22.86;100.00
35045;BME280;21231;48.394;34.964;2022-07-29T17:41:06;100351.53;;;22.67;100.00
35045;BME280;21231;48.394;34.964;2022-07-29T17:43:58;100350.56;;;22.60;100.00
35045;BME280;21231;48.394;34.964;2022-07-29T17:46:47;100347.91;;;22.57;100.00
35045;BME280;21231;48.394;34.964;2022-07-29T17:49:37;100346.06;;;22.45;100.00
35045;BME280;21231;48.394;34.964;2022-07-29T17:52:28;100345.88;;;22.28;100.00
35045;BME280;21231;48.394;34.964;2022-07-29T17:58:28;100359.69;;;22.13;100.00
35045;BME280;21231;48.394;34.964;2022-07-29T18:01:19;100355.31;;;22.12;100.00
35045;BME280;21231;48.394;34.964;2022-07-29T18:07:46;100360.59;;;22.14;100.00
35045;BME280;21231;48.394;34.964;2022-07-29T18:10:34;100358.81;;;22.09;100.00
35045;BME280;21231;48.394;34.964;2022-07-29T18:16:40;100363.91;;;21.99;100.00
35045;BME280;21231;48.394;34.964;2022-07-29T18:19:30;100370.75;;;21.86;100.00
35045;BME280;21231;48.394;34.964;2022-07-29T18:22:28;100371.50;;;21.77;100.00
35045;BME280;21231;48.394;34.964;2022-07-29T18:28:39;100373.81;;;21.55;100.00
35045;BME280;21231;48.394;34.964;2022-07-29T18:32:04;100367.59;;;21.47;100.00
35045;BME280;21231;48.394;34.964;2022-07-29T18:35:06;100365.72;;;21.39;100.00
35045;BME280;21231;48.394;34.964;2022-07-29T18:41:17;100377.69;;;21.22;100.00
35045;BME280;21231;48.394;34.964;2022-07-29T18:44:13;100378.44;;;21.14;100.00
35045;BME280;21231;48.394;34.964;2022-07-29T18:47:03;100377.44;;;21.06;100.00
35045;BME280;21231;48.394;34.964;2022-07-29T18:50:00;100369.69;;;21.12;100.00
35045;BME280;21231;48.394;34.964;2022-07-29T18:52:50;100370.56;;;21.13;100.00
35045;BME280;21231;48.394;34.964;2022-07-29T18:55:45;100366.97;;;21.06;100.00
35045;BME280;21231;48.394;34.964;2022-07-29T18:58:34;100361.69;;;21.03;100.00
35045;BME280;21231;48.394;34.964;2022-07-29T19:01:26;100358.94;;;20.95;100.00
35045;BME280;21231;48.394;34.964;2022-07-29T19:04:17;100361.53;;;20.94;100.00
35045;BME280;21231;48.394;34.964;2022-07-29T19:07:04;100367.47;;;20.85;100.00
35045;BME280;21231;48.394;34.964;2022-07-29T19:10:00;100362.16;;;20.82;100.00
35045;BME280;21231;48.394;34.964;2022-07-29T19:12:53;100368.06;;;20.68;100.00
35045;BME280;21231;48.394;34.964;2022-07-29T19:15:45;100356.59;;;20.61;100.00
35045;BME280;21231;48.394;34.964;2022-07-29T19:21:47;100367.47;;;20.35;100.00
35045;BME280;21231;48.394;34.964;2022-07-29T19:24:39;100367.19;;;20.21;100.00
35045;BME280;21231;48.394;34.964;2022-07-29T21:58:29;100399.09;;;18.89;100.00
35045;BME280;21231;48.394;34.964;2022-07-29T22:01:15;100393.16;;;18.95;100.00
35045;BME280;21231;48.394;34.964;2022-07-29T22:04:08;100401.94;;;18.98;100.00
35045;BME280;21231;48.394;34.964;2022-07-29T22:06:57;100397.84;;;19.08;100.00
35045;BME280;21231;48.394;34.964;2022-07-29T22:09:44;100400.16;;;19.33;100.00
35045;BME280;21231;48.394;34.964;2022-07-29T22:12:35;100396.84;;;19.40;100.00
35045;BME280;21231;48.394;34.964;2022-07-29T22:15:39;100393.63;;;19.52;100.00
35045;BME280;21231;48.394;34.964;2022-07-29T22:18:32;100397.97;;;19.52;100.00
35045;BME280;21231;48.394;34.964;2022-07-29T22:21:20;100404.56;;;19.35;100.00
35045;BME280;21231;48.394;34.964;2022-07-29T22:24:10;100400.06;;;19.30;100.00
35045;BME280;21231;48.394;34.964;2022-07-29T22:26:58;100399.84;;;19.20;100.00
35045;BME280;21231;48.394;34.964;2022-07-29T22:29:48;100396.00;;;19.04;100.00
35045;BME280;21231;48.394;34.964;2022-07-29T22:32:42;100400.81;;;18.89;100.00
35045;BME280;21231;48.394;34.964;2022-07-29T22:35:48;100404.81;;;18.76;100.00
35045;BME280;21231;48.394;34.964;2022-07-29T22:38:43;100400.22;;;18.67;100.00
35045;BME280;21231;48.394;34.964;2022-07-29T22:41:37;100411.94;;;18.49;100.00
35045;BME280;21231;48.394;34.964;2022-07-29T22:44:25;100409.94;;;18.39;100.00
35045;BME280;21231;48.394;34.964;2022-07-29T22:47:12;100399.44;;;18.37;100.00
35045;BME280;21231;48.394;34.964;2022-07-29T22:49:58;100404.66;;;18.37;100.00
35045;BME280;21231;48.394;34.964;2022-07-29T22:52:47;100407.22;;;18.36;100.00
35045;BME280;21231;48.394;34.964;2022-07-29T22:55:43;100411.44;;;18.30;100.00
35045;BME280;21231;48.394;34.964;2022-07-29T22:58:36;100417.22;;;18.20;100.00
35045;BME280;21231;48.394;34.964;2022-07-29T23:01:44;100411.59;;;18.37;100.00
35045;BME280;21231;48.394;34.964;2022-07-29T23:07:54;100413.94;;;18.59;100.00
35045;BME280;21231;48.394;34.964;2022-07-29T23:10:43;100409.66;;;18.62;100.00
35045;BME280;21231;48.394;34.964;2022-07-29T23:19:39;100403.72;;;18.67;100.00
35045;BME280;21231;48.394;34.964;2022-07-29T23:22:27;100401.94;;;18.65;100.00
35045;BME280;21231;48.394;34.964;2022-07-29T23:25:25;100406.44;;;18.70;100.00
35045;BME280;21231;48.394;34.964;2022-07-29T23:31:19;100400.28;;;18.68;100.00
35045;BME280;21231;48.394;34.964;2022-07-29T23:37:32;100391.31;;;18.91;100.00
35045;BME280;21231;48.394;34.964;2022-07-29T23:40:19;100396.44;;;18.88;100.00
35045;BME280;21231;48.394;34.964;2022-07-29T23:43:14;100398.13;;;18.85;100.00
35045;BME280;21231;48.394;34.964;2022-07-29T23:46:04;100379.06;;;18.88;100.00
35045;BME280;21231;48.394;34.964;2022-07-29T23:48:55;100379.78;;;18.84;100.00
35045;BME280;21231;48.394;34.964;2022-07-29T23:51:43;100377.22;;;18.85;100.00
35045;BME280;21231;48.394;34.964;2022-07-29T23:54:38;100372.91;;;18.86;100.00
35045;BME280;21231;48.394;34.964;2022-07-29T23:57:30;100375.47;;;18.84;100.00
